Terminal Aerodrome Forecast
Issued by NWS

Home | Current Version | Previous Version | Text Only | Print | Product List | Glossary On
Versions: 1 2 3 4 5 6 7 8 9 10 11 12 13 14 15 16 17 18 19 20 21 22 23 24 25 26 27 28 29
000
FTUS41 KOKX 051100 RRA
TAFGON
TAF
KGON 051141Z 0512/0612 35008KT 3/4SM -SN BR OVC008
     FM051300 35012G18KT 1SM -SN BR OVC008
     FM051700 35012G18KT 3SM -SN BR SCT008 OVC015
     FM052200 33012KT P6SM BKN020 OVC050=

USA.gov is the U.S. government's official web portal to all federal, state and local government web resources and services.